sensor_id;sensor_type;location;lat;lon;timestamp;P1;durP1;ratioP1;P2;durP2;ratioP2
58918;SDS011;44704;50.122;19.932;2022-07-22T00:01:37;4.50;;;2.90;;
58918;SDS011;44704;50.122;19.932;2022-07-22T00:04:04;4.10;;;2.70;;
58918;SDS011;44704;50.122;19.932;2022-07-22T00:06:33;4.40;;;2.80;;
58918;SDS011;44704;50.122;19.932;2022-07-22T00:09:00;3.40;;;2.60;;
58918;SDS011;44704;50.122;19.932;2022-07-22T00:11:29;7.30;;;2.80;;
58918;SDS011;44704;50.122;19.932;2022-07-22T00:13:57;6.50;;;2.90;;
58918;SDS011;44704;50.122;19.932;2022-07-22T00:16:31;3.40;;;2.70;;
58918;SDS011;44704;50.122;19.932;2022-07-22T00:18:58;5.00;;;3.00;;
58918;SDS011;44704;50.122;19.932;2022-07-22T00:21:30;8.50;;;3.30;;
58918;SDS011;44704;50.122;19.932;2022-07-22T00:23:56;4.90;;;2.70;;
58918;SDS011;44704;50.122;19.932;2022-07-22T00:26:22;5.90;;;3.00;;
58918;SDS011;44704;50.122;19.932;2022-07-22T00:28:51;4.30;;;3.20;;
58918;SDS011;44704;50.122;19.932;2022-07-22T00:31:23;4.80;;;3.00;;
58918;SDS011;44704;50.122;19.932;2022-07-22T00:33:50;7.00;;;3.20;;
58918;SDS011;44704;50.122;19.932;2022-07-22T00:36:20;5.50;;;3.10;;
58918;SDS011;44704;50.122;19.932;2022-07-22T00:38:47;6.00;;;3.00;;
58918;SDS011;44704;50.122;19.932;2022-07-22T00:41:15;5.70;;;2.90;;
58918;SDS011;44704;50.122;19.932;2022-07-22T00:46:27;8.20;;;3.30;;
58918;SDS011;44704;50.122;19.932;2022-07-22T00:48:55;6.10;;;3.00;;
58918;SDS011;44704;50.122;19.932;2022-07-22T00:51:22;3.30;;;3.00;;
58918;SDS011;44704;50.122;19.932;2022-07-22T00:53:50;5.70;;;3.00;;
58918;SDS011;44704;50.122;19.932;2022-07-22T00:56:18;4.50;;;3.10;;
58918;SDS011;44704;50.122;19.932;2022-07-22T00:58:49;6.90;;;3.20;;
58918;SDS011;44704;50.122;19.932;2022-07-22T01:01:17;8.90;;;3.40;;
58918;SDS011;44704;50.122;19.932;2022-07-22T01:03:46;4.40;;;3.10;;
58918;SDS011;44704;50.122;19.932;2022-07-22T01:06:13;6.00;;;3.30;;
58918;SDS011;44704;50.122;19.932;2022-07-22T01:08:40;5.70;;;2.90;;
58918;SDS011;44704;50.122;19.932;2022-07-22T01:11:11;3.40;;;2.90;;
58918;SDS011;44704;50.122;19.932;2022-07-22T01:13:39;4.50;;;2.80;;
58918;SDS011;44704;50.122;19.932;2022-07-22T01:16:07;3.30;;;3.00;;
58918;SDS011;44704;50.122;19.932;2022-07-22T01:18:37;6.00;;;3.20;;
58918;SDS011;44704;50.122;19.932;2022-07-22T01:21:04;4.40;;;3.10;;
58918;SDS011;44704;50.122;19.932;2022-07-22T01:23:35;6.40;;;3.10;;
58918;SDS011;44704;50.122;19.932;2022-07-22T01:26:02;5.60;;;3.00;;
58918;SDS011;44704;50.122;19.932;2022-07-22T01:28:31;7.50;;;3.40;;
58918;SDS011;44704;50.122;19.932;2022-07-22T01:30:59;5.20;;;3.00;;
58918;SDS011;44704;50.122;19.932;2022-07-22T01:33:25;5.30;;;3.20;;
58918;SDS011;44704;50.122;19.932;2022-07-22T01:35:52;4.60;;;3.30;;
58918;SDS011;44704;50.122;19.932;2022-07-22T01:38:25;4.80;;;3.30;;
58918;SDS011;44704;50.122;19.932;2022-07-22T01:40:51;4.70;;;3.20;;
58918;SDS011;44704;50.122;19.932;2022-07-22T01:43:32;4.50;;;3.20;;
58918;SDS011;44704;50.122;19.932;2022-07-22T01:45:59;4.80;;;3.40;;
58918;SDS011;44704;50.122;19.932;2022-07-22T01:48:25;4.50;;;3.20;;
58918;SDS011;44704;50.122;19.932;2022-07-22T01:50:55;5.00;;;3.30;;
58918;SDS011;44704;50.122;19.932;2022-07-22T01:53:25;6.50;;;3.00;;
58918;SDS011;44704;50.122;19.932;2022-07-22T01:55:51;6.50;;;3.30;;
58918;SDS011;44704;50.122;19.932;2022-07-22T01:58:20;5.00;;;3.10;;
58918;SDS011;44704;50.122;19.932;2022-07-22T02:00:47;4.70;;;3.10;;
58918;SDS011;44704;50.122;19.932;2022-07-22T02:03:31;6.10;;;3.30;;
58918;SDS011;44704;50.122;19.932;2022-07-22T02:06:00;7.10;;;3.70;;
58918;SDS011;44704;50.122;19.932;2022-07-22T02:08:27;6.00;;;3.60;;
58918;SDS011;44704;50.122;19.932;2022-07-22T02:11:22;4.40;;;3.10;;
58918;SDS011;44704;50.122;19.932;2022-07-22T02:13:54;7.20;;;3.80;;
58918;SDS011;44704;50.122;19.932;2022-07-22T02:16:26;6.90;;;3.40;;
58918;SDS011;44704;50.122;19.932;2022-07-22T02:18:52;5.30;;;3.70;;
58918;SDS011;44704;50.122;19.932;2022-07-22T02:21:22;4.30;;;3.40;;
58918;SDS011;44704;50.122;19.932;2022-07-22T02:23:51;7.20;;;3.50;;
58918;SDS011;44704;50.122;19.932;2022-07-22T02:26:18;5.40;;;3.50;;
58918;SDS011;44704;50.122;19.932;2022-07-22T02:28:45;8.00;;;3.50;;
58918;SDS011;44704;50.122;19.932;2022-07-22T02:31:14;6.00;;;3.30;;
58918;SDS011;44704;50.122;19.932;2022-07-22T02:33:40;6.20;;;3.50;;
58918;SDS011;44704;50.122;19.932;2022-07-22T02:36:07;4.40;;;3.90;;
58918;SDS011;44704;50.122;19.932;2022-07-22T02:38:34;8.70;;;3.70;;
58918;SDS011;44704;50.122;19.932;2022-07-22T02:41:01;7.00;;;3.60;;
58918;SDS011;44704;50.122;19.932;2022-07-22T02:43:28;6.30;;;3.40;;
58918;SDS011;44704;50.122;19.932;2022-07-22T02:45:54;7.80;;;3.80;;
58918;SDS011;44704;50.122;19.932;2022-07-22T02:48:21;5.40;;;3.50;;
58918;SDS011;44704;50.122;19.932;2022-07-22T02:50:47;7.90;;;3.40;;
58918;SDS011;44704;50.122;19.932;2022-07-22T02:53:18;5.10;;;3.30;;
58918;SDS011;44704;50.122;19.932;2022-07-22T02:55:45;6.30;;;3.80;;
58918;SDS011;44704;50.122;19.932;2022-07-22T02:58:11;8.30;;;3.80;;
58918;SDS011;44704;50.122;19.932;2022-07-22T03:00:39;4.50;;;3.30;;
58918;SDS011;44704;50.122;19.932;2022-07-22T03:03:06;9.00;;;4.10;;
58918;SDS011;44704;50.122;19.932;2022-07-22T03:05:33;6.60;;;4.40;;
58918;SDS011;44704;50.122;19.932;2022-07-22T03:08:29;8.90;;;4.10;;
58918;SDS011;44704;50.122;19.932;2022-07-22T03:10:58;5.50;;;3.80;;
58918;SDS011;44704;50.122;19.932;2022-07-22T03:13:25;6.20;;;4.00;;
58918;SDS011;44704;50.122;19.932;2022-07-22T03:15:52;7.60;;;3.90;;
58918;SDS011;44704;50.122;19.932;2022-07-22T03:18:18;5.20;;;3.50;;
58918;SDS011;44704;50.122;19.932;2022-07-22T03:20:45;8.20;;;3.80;;
58918;SDS011;44704;50.122;19.932;2022-07-22T03:23:12;7.00;;;3.80;;
58918;SDS011;44704;50.122;19.932;2022-07-22T03:25:39;6.40;;;3.90;;
58918;SDS011;44704;50.122;19.932;2022-07-22T03:28:05;9.00;;;4.40;;
58918;SDS011;44704;50.122;19.932;2022-07-22T03:30:35;7.80;;;4.90;;
58918;SDS011;44704;50.122;19.932;2022-07-22T03:33:02;11.70;;;5.10;;
58918;SDS011;44704;50.122;19.932;2022-07-22T03:35:30;6.90;;;4.10;;
58918;SDS011;44704;50.122;19.932;2022-07-22T03:37:57;6.90;;;4.70;;
58918;SDS011;44704;50.122;19.932;2022-07-22T03:40:28;10.20;;;5.30;;
58918;SDS011;44704;50.122;19.932;2022-07-22T03:42:55;7.60;;;4.50;;
58918;SDS011;44704;50.122;19.932;2022-07-22T03:45:21;6.80;;;4.50;;
58918;SDS011;44704;50.122;19.932;2022-07-22T03:48:02;9.60;;;5.20;;
58918;SDS011;44704;50.122;19.932;2022-07-22T03:50:35;10.50;;;6.10;;
58918;SDS011;44704;50.122;19.932;2022-07-22T03:53:01;8.80;;;5.90;;
58918;SDS011;44704;50.122;19.932;2022-07-22T03:55:28;10.10;;;5.30;;
58918;SDS011;44704;50.122;19.932;2022-07-22T03:57:54;9.70;;;6.70;;
58918;SDS011;44704;50.122;19.932;2022-07-22T04:00:27;10.60;;;6.10;;
58918;SDS011;44704;50.122;19.932;2022-07-22T04:03:00;15.40;;;6.10;;
58918;SDS011;44704;50.122;19.932;2022-07-22T04:05:50;20.00;;;6.80;;
58918;SDS011;44704;50.122;19.932;2022-07-22T04:08:24;23.00;;;6.80;;
58918;SDS011;44704;50.122;19.932;2022-07-22T04:10:51;24.50;;;6.90;;
58918;SDS011;44704;50.122;19.932;2022-07-22T04:13:18;30.60;;;8.10;;
58918;SDS011;44704;50.122;19.932;2022-07-22T04:15:48;13.40;;;6.60;;
58918;SDS011;44704;50.122;19.932;2022-07-22T04:18:16;15.50;;;6.80;;
58918;SDS011;44704;50.122;19.932;2022-07-22T04:20:46;23.50;;;7.60;;
58918;SDS011;44704;50.122;19.932;2022-07-22T04:23:21;22.00;;;7.40;;
58918;SDS011;44704;50.122;19.932;2022-07-22T04:25:54;25.00;;;7.70;;
58918;SDS011;44704;50.122;19.932;2022-07-22T04:28:20;18.80;;;7.60;;
58918;SDS011;44704;50.122;19.932;2022-07-22T04:30:47;18.30;;;7.90;;
58918;SDS011;44704;50.122;19.932;2022-07-22T04:33:13;14.30;;;8.20;;
58918;SDS011;44704;50.122;19.932;2022-07-22T04:35:41;26.50;;;9.10;;
58918;SDS011;44704;50.122;19.932;2022-07-22T04:38:15;21.30;;;8.80;;
58918;SDS011;44704;50.122;19.932;2022-07-22T04:40:48;24.60;;;8.20;;
58918;SDS011;44704;50.122;19.932;2022-07-22T04:43:17;26.60;;;8.80;;
58918;SDS011;44704;50.122;19.932;2022-07-22T04:45:49;23.70;;;9.40;;
58918;SDS011;44704;50.122;19.932;2022-07-22T04:48:17;29.90;;;9.40;;
58918;SDS011;44704;50.122;19.932;2022-07-22T04:50:44;21.60;;;9.60;;
58918;SDS011;44704;50.122;19.932;2022-07-22T04:53:15;39.00;;;9.10;;
58918;SDS011;44704;50.122;19.932;2022-07-22T04:55:42;23.90;;;9.70;;
58918;SDS011;44704;50.122;19.932;2022-07-22T04:58:09;21.00;;;9.50;;
58918;SDS011;44704;50.122;19.932;2022-07-22T05:00:37;18.30;;;8.80;;
58918;SDS011;44704;50.122;19.932;2022-07-22T05:03:04;18.30;;;8.70;;
58918;SDS011;44704;50.122;19.932;2022-07-22T05:05:45;18.30;;;9.60;;
58918;SDS011;44704;50.122;19.932;2022-07-22T05:08:12;31.60;;;9.40;;
58918;SDS011;44704;50.122;19.932;2022-07-22T05:10:53;19.90;;;9.30;;
58918;SDS011;44704;50.122;19.932;2022-07-22T05:13:20;19.90;;;9.20;;
58918;SDS011;44704;50.122;19.932;2022-07-22T05:15:46;20.30;;;9.00;;
58918;SDS011;44704;50.122;19.932;2022-07-22T05:18:30;12.70;;;8.70;;
58918;SDS011;44704;50.122;19.932;2022-07-22T05:20:57;19.70;;;8.80;;
58918;SDS011;44704;50.122;19.932;2022-07-22T05:23:38;18.60;;;9.10;;
58918;SDS011;44704;50.122;19.932;2022-07-22T05:26:07;16.40;;;8.40;;
58918;SDS011;44704;50.122;19.932;2022-07-22T05:28:35;13.60;;;8.70;;
58918;SDS011;44704;50.122;19.932;2022-07-22T05:31:02;18.10;;;9.40;;
58918;SDS011;44704;50.122;19.932;2022-07-22T05:33:29;19.00;;;9.50;;
58918;SDS011;44704;50.122;19.932;2022-07-22T05:35:59;21.80;;;10.30;;
58918;SDS011;44704;50.122;19.932;2022-07-22T05:38:33;19.90;;;9.60;;
58918;SDS011;44704;50.122;19.932;2022-07-22T05:41:01;25.20;;;11.20;;
58918;SDS011;44704;50.122;19.932;2022-07-22T05:43:30;22.70;;;9.20;;
58918;SDS011;44704;50.122;19.932;2022-07-22T05:45:58;19.30;;;9.20;;
58918;SDS011;44704;50.122;19.932;2022-07-22T05:48:27;15.10;;;10.20;;
58918;SDS011;44704;50.122;19.932;2022-07-22T05:50:54;16.40;;;9.60;;
58918;SDS011;44704;50.122;19.932;2022-07-22T05:53:20;16.70;;;10.80;;
58918;SDS011;44704;50.122;19.932;2022-07-22T05:55:47;15.90;;;9.80;;
58918;SDS011;44704;50.122;19.932;2022-07-22T05:58:13;24.10;;;9.70;;
58918;SDS011;44704;50.122;19.932;2022-07-22T06:00:40;23.50;;;9.50;;
58918;SDS011;44704;50.122;19.932;2022-07-22T06:03:07;22.70;;;10.20;;
58918;SDS011;44704;50.122;19.932;2022-07-22T06:05:34;18.20;;;10.50;;
58918;SDS011;44704;50.122;19.932;2022-07-22T06:08:06;23.90;;;10.00;;
58918;SDS011;44704;50.122;19.932;2022-07-22T06:10:42;16.90;;;9.90;;
58918;SDS011;44704;50.122;19.932;2022-07-22T06:13:08;18.40;;;9.90;;
58918;SDS011;44704;50.122;19.932;2022-07-22T06:15:35;20.50;;;10.30;;
58918;SDS011;44704;50.122;19.932;2022-07-22T06:18:02;20.60;;;11.10;;
58918;SDS011;44704;50.122;19.932;2022-07-22T06:20:28;16.40;;;10.20;;
58918;SDS011;44704;50.122;19.932;2022-07-22T06:22:55;16.70;;;10.60;;
58918;SDS011;44704;50.122;19.932;2022-07-22T06:25:22;16.90;;;9.60;;
58918;SDS011;44704;50.122;19.932;2022-07-22T06:27:49;15.80;;;9.50;;
58918;SDS011;44704;50.122;19.932;2022-07-22T06:30:15;13.90;;;9.70;;
58918;SDS011;44704;50.122;19.932;2022-07-22T06:32:41;20.50;;;10.50;;
58918;SDS011;44704;50.122;19.932;2022-07-22T06:35:08;17.20;;;10.00;;
58918;SDS011;44704;50.122;19.932;2022-07-22T06:37:36;16.90;;;9.50;;
58918;SDS011;44704;50.122;19.932;2022-07-22T06:40:03;14.00;;;9.20;;
58918;SDS011;44704;50.122;19.932;2022-07-22T06:42:56;19.10;;;9.50;;
58918;SDS011;44704;50.122;19.932;2022-07-22T06:45:32;16.70;;;9.90;;
58918;SDS011;44704;50.122;19.932;2022-07-22T06:48:19;13.20;;;9.40;;
58918;SDS011;44704;50.122;19.932;2022-07-22T06:50:46;21.10;;;10.50;;
58918;SDS011;44704;50.122;19.932;2022-07-22T06:53:15;22.90;;;10.20;;
58918;SDS011;44704;50.122;19.932;2022-07-22T06:55:42;16.90;;;9.70;;
58918;SDS011;44704;50.122;19.932;2022-07-22T06:58:10;16.20;;;9.70;;
58918;SDS011;44704;50.122;19.932;2022-07-22T07:00:37;18.60;;;9.50;;
58918;SDS011;44704;50.122;19.932;2022-07-22T07:03:18;15.70;;;9.30;;
58918;SDS011;44704;50.122;19.932;2022-07-22T07:05:45;17.80;;;9.90;;
58918;SDS011;44704;50.122;19.932;2022-07-22T07:08:11;18.00;;;10.70;;
58918;SDS011;44704;50.122;19.932;2022-07-22T07:10:38;16.10;;;10.80;;
58918;SDS011;44704;50.122;19.932;2022-07-22T07:13:09;21.70;;;9.60;;
58918;SDS011;44704;50.122;19.932;2022-07-22T07:15:58;15.80;;;8.90;;
58918;SDS011;44704;50.122;19.932;2022-07-22T07:18:24;12.90;;;9.70;;
58918;SDS011;44704;50.122;19.932;2022-07-22T07:20:58;15.50;;;9.40;;
58918;SDS011;44704;50.122;19.932;2022-07-22T07:23:25;21.10;;;10.30;;
58918;SDS011;44704;50.122;19.932;2022-07-22T07:25:51;20.20;;;9.40;;
58918;SDS011;44704;50.122;19.932;2022-07-22T07:28:19;19.70;;;10.50;;
58918;SDS011;44704;50.122;19.932;2022-07-22T07:31:22;17.50;;;9.90;;
58918;SDS011;44704;50.122;19.932;2022-07-22T07:33:50;16.00;;;10.20;;
58918;SDS011;44704;50.122;19.932;2022-07-22T07:36:18;11.80;;;9.80;;
58918;SDS011;44704;50.122;19.932;2022-07-22T07:38:48;17.50;;;10.60;;
58918;SDS011;44704;50.122;19.932;2022-07-22T07:41:15;14.30;;;10.00;;
58918;SDS011;44704;50.122;19.932;2022-07-22T07:43:43;16.70;;;9.50;;
58918;SDS011;44704;50.122;19.932;2022-07-22T07:46:25;15.80;;;9.90;;
58918;SDS011;44704;50.122;19.932;2022-07-22T07:48:52;25.70;;;10.60;;
58918;SDS011;44704;50.122;19.932;2022-07-22T07:51:19;17.60;;;10.10;;
58918;SDS011;44704;50.122;19.932;2022-07-22T07:53:46;21.60;;;9.80;;
58918;SDS011;44704;50.122;19.932;2022-07-22T07:56:19;15.20;;;9.80;;
58918;SDS011;44704;50.122;19.932;2022-07-22T07:58:46;17.30;;;10.10;;
58918;SDS011;44704;50.122;19.932;2022-07-22T08:01:13;12.60;;;10.30;;
58918;SDS011;44704;50.122;19.932;2022-07-22T08:03:40;18.10;;;10.10;;
58918;SDS011;44704;50.122;19.932;2022-07-22T08:06:06;13.60;;;9.90;;
58918;SDS011;44704;50.122;19.932;2022-07-22T08:08:37;17.90;;;9.70;;
58918;SDS011;44704;50.122;19.932;2022-07-22T08:13:56;14.10;;;10.60;;
58918;SDS011;44704;50.122;19.932;2022-07-22T08:16:38;15.60;;;10.10;;
58918;SDS011;44704;50.122;19.932;2022-07-22T08:19:05;12.90;;;9.60;;
58918;SDS011;44704;50.122;19.932;2022-07-22T08:21:33;14.00;;;10.80;;
58918;SDS011;44704;50.122;19.932;2022-07-22T08:24:11;15.60;;;10.20;;
58918;SDS011;44704;50.122;19.932;2022-07-22T08:26:38;15.70;;;10.30;;
58918;SDS011;44704;50.122;19.932;2022-07-22T08:29:31;14.60;;;9.80;;
58918;SDS011;44704;50.122;19.932;2022-07-22T08:32:32;15.40;;;10.60;;
58918;SDS011;44704;50.122;19.932;2022-07-22T08:35:01;13.20;;;10.70;;
58918;SDS011;44704;50.122;19.932;2022-07-22T08:37:27;14.50;;;10.30;;
58918;SDS011;44704;50.122;19.932;2022-07-22T08:40:09;19.60;;;11.00;;
58918;SDS011;44704;50.122;19.932;2022-07-22T08:42:38;21.20;;;10.60;;
58918;SDS011;44704;50.122;19.932;2022-07-22T08:45:06;17.60;;;10.70;;
58918;SDS011;44704;50.122;19.932;2022-07-22T08:47:34;17.20;;;10.40;;
58918;SDS011;44704;50.122;19.932;2022-07-22T08:50:43;17.40;;;10.60;;
58918;SDS011;44704;50.122;19.932;2022-07-22T08:53:56;17.30;;;11.40;;
58918;SDS011;44704;50.122;19.932;2022-07-22T08:56:23;15.00;;;9.90;;
58918;SDS011;44704;50.122;19.932;2022-07-22T08:58:49;14.40;;;10.40;;
58918;SDS011;44704;50.122;19.932;2022-07-22T09:01:29;14.70;;;10.40;;
58918;SDS011;44704;50.122;19.932;2022-07-22T09:04:01;25.60;;;10.90;;
58918;SDS011;44704;50.122;19.932;2022-07-22T09:06:34;20.10;;;11.60;;
58918;SDS011;44704;50.122;19.932;2022-07-22T09:09:05;13.30;;;10.40;;
58918;SDS011;44704;50.122;19.932;2022-07-22T09:12:08;18.90;;;10.60;;
58918;SDS011;44704;50.122;19.932;2022-07-22T09:15:06;15.90;;;10.50;;
58918;SDS011;44704;50.122;19.932;2022-07-22T09:17:54;16.20;;;10.90;;
58918;SDS011;44704;50.122;19.932;2022-07-22T09:20:35;15.90;;;10.90;;
58918;SDS011;44704;50.122;19.932;2022-07-22T09:23:19;16.90;;;11.60;;
58918;SDS011;44704;50.122;19.932;2022-07-22T09:25:49;15.70;;;11.40;;
58918;SDS011;44704;50.122;19.932;2022-07-22T09:28:53;16.40;;;11.30;;
58918;SDS011;44704;50.122;19.932;2022-07-22T09:31:28;13.60;;;11.00;;
58918;SDS011;44704;50.122;19.932;2022-07-22T09:34:05;13.50;;;10.70;;
58918;SDS011;44704;50.122;19.932;2022-07-22T09:36:33;16.00;;;10.80;;
58918;SDS011;44704;50.122;19.932;2022-07-22T09:39:27;16.40;;;11.60;;
58918;SDS011;44704;50.122;19.932;2022-07-22T09:42:01;16.60;;;11.20;;
58918;SDS011;44704;50.122;19.932;2022-07-22T09:44:33;14.70;;;11.40;;
58918;SDS011;44704;50.122;19.932;2022-07-22T09:47:09;16.10;;;11.60;;
58918;SDS011;44704;50.122;19.932;2022-07-22T09:50:29;14.00;;;10.90;;
58918;SDS011;44704;50.122;19.932;2022-07-22T09:53:14;12.70;;;11.20;;
58918;SDS011;44704;50.122;19.932;2022-07-22T09:56:49;15.60;;;11.60;;
58918;SDS011;44704;50.122;19.932;2022-07-22T09:59:18;15.30;;;11.60;;
58918;SDS011;44704;50.122;19.932;2022-07-22T10:01:57;15.20;;;11.30;;
58918;SDS011;44704;50.122;19.932;2022-07-22T10:04:31;17.20;;;11.70;;
58918;SDS011;44704;50.122;19.932;2022-07-22T10:07:17;18.40;;;11.50;;
58918;SDS011;44704;50.122;19.932;2022-07-22T10:12:12;18.90;;;12.00;;
58918;SDS011;44704;50.122;19.932;2022-07-22T10:14:41;20.00;;;11.90;;
58918;SDS011;44704;50.122;19.932;2022-07-22T10:17:13;16.80;;;11.90;;
58918;SDS011;44704;50.122;19.932;2022-07-22T10:19:59;16.90;;;11.90;;
58918;SDS011;44704;50.122;19.932;2022-07-22T10:25:11;18.80;;;12.20;;
58918;SDS011;44704;50.122;19.932;2022-07-22T10:27:43;15.80;;;12.30;;
58918;SDS011;44704;50.122;19.932;2022-07-22T10:30:29;15.20;;;12.10;;
58918;SDS011;44704;50.122;19.932;2022-07-22T10:33:07;16.60;;;11.80;;
58918;SDS011;44704;50.122;19.932;2022-07-22T10:38:25;14.00;;;11.30;;
58918;SDS011;44704;50.122;19.932;2022-07-22T10:40:54;16.20;;;11.50;;
58918;SDS011;44704;50.122;19.932;2022-07-22T10:43:28;21.10;;;12.30;;
58918;SDS011;44704;50.122;19.932;2022-07-22T10:46:00;19.60;;;11.90;;
58918;SDS011;44704;50.122;19.932;2022-07-22T10:48:44;16.90;;;11.90;;
58918;SDS011;44704;50.122;19.932;2022-07-22T10:51:14;20.40;;;12.30;;
58918;SDS011;44704;50.122;19.932;2022-07-22T10:53:43;18.10;;;12.10;;
58918;SDS011;44704;50.122;19.932;2022-07-22T10:56:35;14.70;;;11.50;;
58918;SDS011;44704;50.122;19.932;2022-07-22T10:59:08;14.20;;;12.00;;
58918;SDS011;44704;50.122;19.932;2022-07-22T11:01:38;14.50;;;11.50;;
58918;SDS011;44704;50.122;19.932;2022-07-22T11:06:36;17.80;;;12.60;;
58918;SDS011;44704;50.122;19.932;2022-07-22T11:09:04;23.30;;;12.50;;
58918;SDS011;44704;50.122;19.932;2022-07-22T11:11:47;21.10;;;12.40;;
58918;SDS011;44704;50.122;19.932;2022-07-22T11:16:58;16.00;;;11.60;;
58918;SDS011;44704;50.122;19.932;2022-07-22T11:19:42;17.70;;;12.20;;
58918;SDS011;44704;50.122;19.932;2022-07-22T11:22:12;20.00;;;12.00;;
58918;SDS011;44704;50.122;19.932;2022-07-22T11:24:41;18.70;;;11.60;;
58918;SDS011;44704;50.122;19.932;2022-07-22T11:27:15;15.10;;;11.70;;
58918;SDS011;44704;50.122;19.932;2022-07-22T11:29:43;14.90;;;11.80;;
58918;SDS011;44704;50.122;19.932;2022-07-22T11:32:14;15.70;;;11.60;;
58918;SDS011;44704;50.122;19.932;2022-07-22T11:34:42;20.10;;;12.00;;
58918;SDS011;44704;50.122;19.932;2022-07-22T11:37:28;15.20;;;11.40;;
58918;SDS011;44704;50.122;19.932;2022-07-22T11:40:03;17.50;;;11.20;;
58918;SDS011;44704;50.122;19.932;2022-07-22T11:42:31;15.30;;;12.30;;
58918;SDS011;44704;50.122;19.932;2022-07-22T11:45:13;16.70;;;11.70;;
58918;SDS011;44704;50.122;19.932;2022-07-22T11:47:48;16.90;;;12.70;;
58918;SDS011;44704;50.122;19.932;2022-07-22T11:50:15;18.10;;;12.80;;
58918;SDS011;44704;50.122;19.932;2022-07-22T11:52:51;14.60;;;11.40;;
58918;SDS011;44704;50.122;19.932;2022-07-22T11:55:19;14.90;;;11.80;;
58918;SDS011;44704;50.122;19.932;2022-07-22T11:57:48;14.30;;;12.70;;
58918;SDS011;44704;50.122;19.932;2022-07-22T12:00:15;16.20;;;12.20;;
58918;SDS011;44704;50.122;19.932;2022-07-22T12:05:24;14.60;;;11.80;;
58918;SDS011;44704;50.122;19.932;2022-07-22T12:07:54;20.60;;;11.80;;
58918;SDS011;44704;50.122;19.932;2022-07-22T12:10:38;17.40;;;12.30;;
58918;SDS011;44704;50.122;19.932;2022-07-22T12:13:12;13.20;;;11.80;;
58918;SDS011;44704;50.122;19.932;2022-07-22T12:15:45;13.60;;;11.80;;
58918;SDS011;44704;50.122;19.932;2022-07-22T12:18:16;14.80;;;11.80;;
58918;SDS011;44704;50.122;19.932;2022-07-22T12:20:45;15.50;;;10.90;;
58918;SDS011;44704;50.122;19.932;2022-07-22T12:23:15;13.60;;;11.60;;
58918;SDS011;44704;50.122;19.932;2022-07-22T12:25:59;16.30;;;11.50;;
58918;SDS011;44704;50.122;19.932;2022-07-22T12:28:36;15.10;;;12.30;;
58918;SDS011;44704;50.122;19.932;2022-07-22T12:34:02;13.20;;;11.70;;
58918;SDS011;44704;50.122;19.932;2022-07-22T12:36:32;18.20;;;12.00;;
58918;SDS011;44704;50.122;19.932;2022-07-22T12:39:10;15.50;;;11.90;;
58918;SDS011;44704;50.122;19.932;2022-07-22T12:41:48;15.00;;;11.30;;
58918;SDS011;44704;50.122;19.932;2022-07-22T12:44:38;17.70;;;11.80;;
58918;SDS011;44704;50.122;19.932;2022-07-22T12:47:06;15.50;;;11.20;;
58918;SDS011;44704;50.122;19.932;2022-07-22T12:49:36;13.70;;;11.20;;
58918;SDS011;44704;50.122;19.932;2022-07-22T12:52:11;13.30;;;10.90;;
58918;SDS011;44704;50.122;19.932;2022-07-22T12:54:41;13.60;;;10.20;;
58918;SDS011;44704;50.122;19.932;2022-07-22T12:57:10;12.20;;;9.90;;
58918;SDS011;44704;50.122;19.932;2022-07-22T12:59:37;16.10;;;10.80;;
58918;SDS011;44704;50.122;19.932;2022-07-22T13:02:07;14.40;;;10.80;;
58918;SDS011;44704;50.122;19.932;2022-07-22T13:04:34;12.60;;;10.60;;
58918;SDS011;44704;50.122;19.932;2022-07-22T13:07:33;13.90;;;9.40;;
58918;SDS011;44704;50.122;19.932;2022-07-22T13:09:59;13.70;;;9.40;;
58918;SDS011;44704;50.122;19.932;2022-07-22T13:12:26;12.70;;;9.20;;
58918;SDS011;44704;50.122;19.932;2022-07-22T13:14:52;11.80;;;9.20;;
58918;SDS011;44704;50.122;19.932;2022-07-22T13:17:23;14.30;;;8.70;;
58918;SDS011;44704;50.122;19.932;2022-07-22T13:19:53;12.90;;;9.30;;
58918;SDS011;44704;50.122;19.932;2022-07-22T13:22:34;13.10;;;9.90;;
58918;SDS011;44704;50.122;19.932;2022-07-22T13:25:06;15.90;;;9.10;;
58918;SDS011;44704;50.122;19.932;2022-07-22T13:27:41;11.50;;;8.60;;
58918;SDS011;44704;50.122;19.932;2022-07-22T13:32:38;10.50;;;8.20;;
58918;SDS011;44704;50.122;19.932;2022-07-22T13:35:07;10.20;;;9.10;;
58918;SDS011;44704;50.122;19.932;2022-07-22T13:37:50;9.90;;;8.90;;
58918;SDS011;44704;50.122;19.932;2022-07-22T13:40:19;10.10;;;8.50;;
58918;SDS011;44704;50.122;19.932;2022-07-22T13:42:46;9.60;;;8.10;;
58918;SDS011;44704;50.122;19.932;2022-07-22T13:45:13;10.60;;;8.80;;
58918;SDS011;44704;50.122;19.932;2022-07-22T13:47:40;9.60;;;8.30;;
58918;SDS011;44704;50.122;19.932;2022-07-22T13:50:08;13.00;;;9.40;;
58918;SDS011;44704;50.122;19.932;2022-07-22T13:52:36;10.20;;;9.00;;
58918;SDS011;44704;50.122;19.932;2022-07-22T13:55:04;12.90;;;8.90;;
58918;SDS011;44704;50.122;19.932;2022-07-22T13:57:32;10.00;;;8.70;;
58918;SDS011;44704;50.122;19.932;2022-07-22T14:00:01;8.90;;;8.00;;
58918;SDS011;44704;50.122;19.932;2022-07-22T14:02:32;9.30;;;7.60;;
58918;SDS011;44704;50.122;19.932;2022-07-22T14:05:02;8.50;;;7.70;;
58918;SDS011;44704;50.122;19.932;2022-07-22T14:07:29;10.40;;;7.80;;
58918;SDS011;44704;50.122;19.932;2022-07-22T14:12:33;10.80;;;7.90;;
58918;SDS011;44704;50.122;19.932;2022-07-22T14:15:00;11.50;;;7.40;;
58918;SDS011;44704;50.122;19.932;2022-07-22T14:17:27;11.10;;;8.40;;
58918;SDS011;44704;50.122;19.932;2022-07-22T14:19:53;9.20;;;8.00;;
58918;SDS011;44704;50.122;19.932;2022-07-22T14:22:20;9.50;;;8.40;;
58918;SDS011;44704;50.122;19.932;2022-07-22T14:24:47;8.60;;;7.80;;
58918;SDS011;44704;50.122;19.932;2022-07-22T14:27:13;10.50;;;7.90;;
58918;SDS011;44704;50.122;19.932;2022-07-22T14:29:40;11.10;;;7.70;;
58918;SDS011;44704;50.122;19.932;2022-07-22T14:32:07;12.20;;;7.60;;
58918;SDS011;44704;50.122;19.932;2022-07-22T14:34:34;9.60;;;8.20;;
58918;SDS011;44704;50.122;19.932;2022-07-22T14:37:15;11.20;;;7.70;;
58918;SDS011;44704;50.122;19.932;2022-07-22T14:39:42;12.10;;;7.60;;
58918;SDS011;44704;50.122;19.932;2022-07-22T14:42:09;11.20;;;8.20;;
58918;SDS011;44704;50.122;19.932;2022-07-22T14:44:35;9.40;;;8.30;;
58918;SDS011;44704;50.122;19.932;2022-07-22T14:47:02;9.80;;;8.70;;
58918;SDS011;44704;50.122;19.932;2022-07-22T14:49:28;9.30;;;7.80;;
58918;SDS011;44704;50.122;19.932;2022-07-22T14:51:55;9.10;;;8.10;;
58918;SDS011;44704;50.122;19.932;2022-07-22T14:54:21;9.40;;;8.50;;
58918;SDS011;44704;50.122;19.932;2022-07-22T14:57:02;9.20;;;8.40;;
58918;SDS011;44704;50.122;19.932;2022-07-22T14:59:28;10.80;;;7.90;;
58918;SDS011;44704;50.122;19.932;2022-07-22T15:01:55;10.50;;;7.90;;
58918;SDS011;44704;50.122;19.932;2022-07-22T15:04:21;14.10;;;8.30;;
58918;SDS011;44704;50.122;19.932;2022-07-22T15:06:48;9.20;;;7.80;;
58918;SDS011;44704;50.122;19.932;2022-07-22T15:09:14;11.70;;;7.40;;
58918;SDS011;44704;50.122;19.932;2022-07-22T15:11:40;13.40;;;7.10;;
58918;SDS011;44704;50.122;19.932;2022-07-22T15:14:07;7.90;;;7.00;;
58918;SDS011;44704;50.122;19.932;2022-07-22T15:16:33;8.30;;;7.40;;